sensor_id;sensor_type;location;lat;lon;timestamp;pressure;altitude;pressure_sealevel;temperature;humidity
68169;BME280;54981;50.206;15.978;2022-09-09T00:01:54;98626.47;;;14.41;100.00
68169;BME280;54981;50.206;15.978;2022-09-09T00:04:31;98621.13;;;14.41;100.00
68169;BME280;54981;50.206;15.978;2022-09-09T00:07:13;98628.19;;;14.42;100.00
68169;BME280;54981;50.206;15.978;2022-09-09T00:09:55;98623.28;;;14.36;100.00
68169;BME280;54981;50.206;15.978;2022-09-09T00:15:14;98627.63;;;14.01;100.00
68169;BME280;54981;50.206;15.978;2022-09-09T00:20:35;98620.34;;;14.03;100.00
68169;BME280;54981;50.206;15.978;2022-09-09T00:23:16;98620.16;;;13.94;100.00
68169;BME280;54981;50.206;15.978;2022-09-09T00:26:02;98624.84;;;14.03;100.00
68169;BME280;54981;50.206;15.978;2022-09-09T00:28:31;98620.34;;;14.03;100.00
68169;BME280;54981;50.206;15.978;2022-09-09T00:31:12;98624.16;;;14.12;100.00
68169;BME280;54981;50.206;15.978;2022-09-09T00:33:38;98621.69;;;14.09;100.00
68169;BME280;54981;50.206;15.978;2022-09-09T00:36:11;98625.69;;;14.03;100.00
68169;BME280;54981;50.206;15.978;2022-09-09T00:38:49;98626.78;;;14.01;100.00
68169;BME280;54981;50.206;15.978;2022-09-09T00:44:11;98628.38;;;14.03;100.00
68169;BME280;54981;50.206;15.978;2022-09-09T00:50:13;98627.59;;;14.14;100.00
68169;BME280;54981;50.206;15.978;2022-09-09T00:52:51;98630.38;;;14.13;100.00
68169;BME280;54981;50.206;15.978;2022-09-09T00:58:16;98636.97;;;13.96;100.00
68169;BME280;54981;50.206;15.978;2022-09-09T01:00:44;98647.75;;;13.83;100.00
68169;BME280;54981;50.206;15.978;2022-09-09T01:03:49;98643.75;;;13.89;100.00
68169;BME280;54981;50.206;15.978;2022-09-09T01:06:33;98636.22;;;13.94;100.00
68169;BME280;54981;50.206;15.978;2022-09-09T01:09:16;98644.25;;;13.94;100.00
68169;BME280;54981;50.206;15.978;2022-09-09T01:12:03;98637.91;;;13.71;100.00
68169;BME280;54981;50.206;15.978;2022-09-09T01:17:12;98644.50;;;13.41;100.00
68169;BME280;54981;50.206;15.978;2022-09-09T01:25:21;98652.81;;;13.62;100.00
68169;BME280;54981;50.206;15.978;2022-09-09T01:27:51;98654.09;;;13.69;100.00
68169;BME280;54981;50.206;15.978;2022-09-09T01:30:18;98655.78;;;13.70;100.00
68169;BME280;54981;50.206;15.978;2022-09-09T01:32:45;98660.38;;;13.68;100.00
68169;BME280;54981;50.206;15.978;2022-09-09T01:35:25;98656.97;;;13.66;100.00
68169;BME280;54981;50.206;15.978;2022-09-09T01:37:54;98662.47;;;13.52;100.00
68169;BME280;54981;50.206;15.978;2022-09-09T01:40:19;98662.56;;;13.50;100.00
68169;BME280;54981;50.206;15.978;2022-09-09T01:42:44;98656.34;;;13.62;100.00
68169;BME280;54981;50.206;15.978;2022-09-09T01:45:10;98650.88;;;13.64;100.00
68169;BME280;54981;50.206;15.978;2022-09-09T01:47:35;98654.84;;;13.71;100.00
68169;BME280;54981;50.206;15.978;2022-09-09T01:50:01;98657.38;;;13.73;100.00
68169;BME280;54981;50.206;15.978;2022-09-09T01:52:28;98651.69;;;13.77;100.00
68169;BME280;54981;50.206;15.978;2022-09-09T01:54:54;98656.63;;;13.83;100.00
68169;BME280;54981;50.206;15.978;2022-09-09T01:57:31;98661.13;;;13.83;100.00
68169;BME280;54981;50.206;15.978;2022-09-09T02:00:04;98659.31;;;13.71;100.00
68169;BME280;54981;50.206;15.978;2022-09-09T02:05:41;98657.91;;;13.78;100.00
68169;BME280;54981;50.206;15.978;2022-09-09T02:08:17;98659.16;;;13.85;100.00
68169;BME280;54981;50.206;15.978;2022-09-09T02:11:14;98654.03;;;13.82;100.00
68169;BME280;54981;50.206;15.978;2022-09-09T02:13:40;98652.53;;;13.78;100.00
68169;BME280;54981;50.206;15.978;2022-09-09T02:16:12;98653.00;;;13.72;100.00
68169;BME280;54981;50.206;15.978;2022-09-09T02:18:47;98658.03;;;13.76;100.00
68169;BME280;54981;50.206;15.978;2022-09-09T02:21:15;98651.69;;;13.77;100.00
68169;BME280;54981;50.206;15.978;2022-09-09T02:23:42;98658.34;;;13.72;100.00
68169;BME280;54981;50.206;15.978;2022-09-09T02:26:12;98657.59;;;13.70;100.00
68169;BME280;54981;50.206;15.978;2022-09-09T02:28:45;98664.03;;;13.67;100.00
68169;BME280;54981;50.206;15.978;2022-09-09T02:31:11;98658.34;;;13.72;100.00
68169;BME280;54981;50.206;15.978;2022-09-09T02:33:42;98661.78;;;13.74;100.00
68169;BME280;54981;50.206;15.978;2022-09-09T02:36:09;98661.66;;;13.75;100.00
68169;BME280;54981;50.206;15.978;2022-09-09T02:38:42;98663.25;;;13.78;100.00
68169;BME280;54981;50.206;15.978;2022-09-09T02:41:10;98664.13;;;13.78;100.00
68169;BME280;54981;50.206;15.978;2022-09-09T02:43:36;98673.56;;;13.71;100.00
68169;BME280;54981;50.206;15.978;2022-09-09T02:46:29;98674.75;;;13.67;100.00
68169;BME280;54981;50.206;15.978;2022-09-09T02:49:04;98666.19;;;13.62;100.00
68169;BME280;54981;50.206;15.978;2022-09-09T02:51:51;98674.63;;;13.69;100.00
68169;BME280;54981;50.206;15.978;2022-09-09T02:54:33;98674.00;;;13.65;100.00
68169;BME280;54981;50.206;15.978;2022-09-09T02:57:04;98671.03;;;13.57;100.00
68169;BME280;54981;50.206;15.978;2022-09-09T02:59:31;98670.69;;;13.49;100.00
68169;BME280;54981;50.206;15.978;2022-09-09T03:01:57;98671.91;;;13.45;100.00
68169;BME280;54981;50.206;15.978;2022-09-09T03:04:22;98663.22;;;13.41;100.00
68169;BME280;54981;50.206;15.978;2022-09-09T03:06:49;98660.22;;;13.46;100.00
68169;BME280;54981;50.206;15.978;2022-09-09T03:09:15;98663.75;;;13.46;100.00
68169;BME280;54981;50.206;15.978;2022-09-09T03:11:40;98668.25;;;13.46;100.00
68169;BME280;54981;50.206;15.978;2022-09-09T03:14:05;98668.78;;;13.51;100.00
68169;BME280;54981;50.206;15.978;2022-09-09T03:16:31;98667.28;;;13.47;100.00
68169;BME280;54981;50.206;15.978;2022-09-09T03:18:58;98668.78;;;13.51;100.00
68169;BME280;54981;50.206;15.978;2022-09-09T03:21:23;98669.75;;;13.50;100.00
68169;BME280;54981;50.206;15.978;2022-09-09T03:23:50;98666.75;;;13.54;100.00
68169;BME280;54981;50.206;15.978;2022-09-09T03:26:15;98660.22;;;13.46;100.00
68169;BME280;54981;50.206;15.978;2022-09-09T03:28:42;98666.44;;;13.46;100.00
68169;BME280;54981;50.206;15.978;2022-09-09T03:31:07;98667.59;;;13.42;100.00
68169;BME280;54981;50.206;15.978;2022-09-09T03:33:35;98669.13;;;13.33;100.00
68169;BME280;54981;50.206;15.978;2022-09-09T03:36:02;98671.03;;;13.31;100.00
68169;BME280;54981;50.206;15.978;2022-09-09T03:38:27;98678.50;;;13.26;100.00
68169;BME280;54981;50.206;15.978;2022-09-09T03:40:55;98668.66;;;13.27;100.00
68169;BME280;54981;50.206;15.978;2022-09-09T03:43:22;98669.53;;;13.27;100.00
68169;BME280;54981;50.206;15.978;2022-09-09T03:45:48;98668.75;;;13.25;100.00
68169;BME280;54981;50.206;15.978;2022-09-09T03:48:15;98678.72;;;13.23;100.00
68169;BME280;54981;50.206;15.978;2022-09-09T03:50:47;98671.13;;;13.17;100.00
68169;BME280;54981;50.206;15.978;2022-09-09T03:53:14;98666.66;;;13.05;100.00
68169;BME280;54981;50.206;15.978;2022-09-09T03:55:44;98673.38;;;12.97;100.00
68169;BME280;54981;50.206;15.978;2022-09-09T03:58:11;98674.09;;;12.87;100.00
68169;BME280;54981;50.206;15.978;2022-09-09T04:00:36;98682.03;;;12.88;100.00
68169;BME280;54981;50.206;15.978;2022-09-09T04:03:02;98682.78;;;12.90;100.00
68169;BME280;54981;50.206;15.978;2022-09-09T04:05:27;98682.13;;;12.87;100.00
68169;BME280;54981;50.206;15.978;2022-09-09T04:07:52;98684.69;;;12.88;100.00
68169;BME280;54981;50.206;15.978;2022-09-09T04:10:21;98681.06;;;12.89;100.00
68169;BME280;54981;50.206;15.978;2022-09-09T04:12:49;98680.94;;;12.91;100.00
68169;BME280;54981;50.206;15.978;2022-09-09T04:15:18;98673.06;;;12.89;100.00
68169;BME280;54981;50.206;15.978;2022-09-09T04:17:46;98677.84;;;12.84;100.00
68169;BME280;54981;50.206;15.978;2022-09-09T04:20:13;98671.63;;;12.84;100.00
68169;BME280;54981;50.206;15.978;2022-09-09T04:22:41;98674.22;;;12.72;100.00
68169;BME280;54981;50.206;15.978;2022-09-09T04:25:10;98681.13;;;12.62;100.00
68169;BME280;54981;50.206;15.978;2022-09-09T04:27:38;98685.06;;;12.56;100.00
68169;BME280;54981;50.206;15.978;2022-09-09T04:30:04;98682.25;;;12.45;100.00
68169;BME280;54981;50.206;15.978;2022-09-09T04:32:32;98682.06;;;12.48;100.00
68169;BME280;54981;50.206;15.978;2022-09-09T04:34:58;98687.81;;;12.42;100.00
68169;BME280;54981;50.206;15.978;2022-09-09T04:37:23;98687.59;;;12.45;100.00
68169;BME280;54981;50.206;15.978;2022-09-09T04:39:50;98692.53;;;12.51;100.00
68169;BME280;54981;50.206;15.978;2022-09-09T04:42:15;98693.84;;;12.58;100.00
68169;BME280;54981;50.206;15.978;2022-09-09T04:44:41;98689.56;;;12.56;100.00
68169;BME280;54981;50.206;15.978;2022-09-09T04:47:07;98691.47;;;12.54;100.00
68169;BME280;54981;50.206;15.978;2022-09-09T04:49:32;98710.47;;;12.49;100.00
68169;BME280;54981;50.206;15.978;2022-09-09T04:51:57;98702.97;;;12.42;100.00
68169;BME280;54981;50.206;15.978;2022-09-09T04:54:23;98695.91;;;12.41;100.00
68169;BME280;54981;50.206;15.978;2022-09-09T04:56:50;98693.59;;;12.49;100.00
68169;BME280;54981;50.206;15.978;2022-09-09T04:59:16;98696.16;;;12.50;100.00
68169;BME280;54981;50.206;15.978;2022-09-09T05:01:41;98699.94;;;12.61;100.00
68169;BME280;54981;50.206;15.978;2022-09-09T05:04:07;98704.31;;;12.62;100.00
68169;BME280;54981;50.206;15.978;2022-09-09T05:06:33;98692.56;;;12.64;100.00
68169;BME280;54981;50.206;15.978;2022-09-09T05:09:00;98699.63;;;12.65;100.00
68169;BME280;54981;50.206;15.978;2022-09-09T05:11:27;98691.28;;;12.70;100.00
68169;BME280;54981;50.206;15.978;2022-09-09T05:13:53;98690.34;;;12.71;100.00
68169;BME280;54981;50.206;15.978;2022-09-09T05:16:20;98698.34;;;12.71;100.00
68169;BME280;54981;50.206;15.978;2022-09-09T05:18:46;98699.44;;;12.81;100.00
68169;BME280;54981;50.206;15.978;2022-09-09T05:21:12;98703.06;;;12.80;100.00
68169;BME280;54981;50.206;15.978;2022-09-09T05:23:38;98698.72;;;12.92;100.00
68169;BME280;54981;50.206;15.978;2022-09-09T05:26:04;98705.44;;;13.10;100.00
68169;BME280;54981;50.206;15.978;2022-09-09T05:28:30;98708.00;;;13.25;100.00
68169;BME280;54981;50.206;15.978;2022-09-09T05:31:00;98706.97;;;13.53;100.00
68169;BME280;54981;50.206;15.978;2022-09-09T05:33:27;98707.41;;;13.59;100.00
68169;BME280;54981;50.206;15.978;2022-09-09T05:36:00;98710.16;;;13.71;100.00
68169;BME280;54981;50.206;15.978;2022-09-09T05:38:26;98719.56;;;13.76;100.00
68169;BME280;54981;50.206;15.978;2022-09-09T05:40:52;98713.88;;;13.81;100.00
68169;BME280;54981;50.206;15.978;2022-09-09T05:43:19;98714.59;;;13.96;100.00
68169;BME280;54981;50.206;15.978;2022-09-09T05:45:46;98708.91;;;14.00;100.00
68169;BME280;54981;50.206;15.978;2022-09-09T05:48:15;98714.22;;;14.13;100.00
68169;BME280;54981;50.206;15.978;2022-09-09T05:50:41;98702.19;;;14.19;100.00
68169;BME280;54981;50.206;15.978;2022-09-09T05:53:08;98713.78;;;14.19;100.00
68169;BME280;54981;50.206;15.978;2022-09-09T05:55:33;98707.69;;;14.17;100.00
68169;BME280;54981;50.206;15.978;2022-09-09T05:57:59;98708.94;;;14.24;100.00
68169;BME280;54981;50.206;15.978;2022-09-09T06:00:25;98711.88;;;14.33;100.00
68169;BME280;54981;50.206;15.978;2022-09-09T06:02:51;98714.91;;;14.52;100.00
68169;BME280;54981;50.206;15.978;2022-09-09T06:05:18;98714.16;;;14.74;100.00
68169;BME280;54981;50.206;15.978;2022-09-09T06:07:44;98718.50;;;14.88;100.00
68169;BME280;54981;50.206;15.978;2022-09-09T06:10:10;98720.75;;;15.17;100.00
68169;BME280;54981;50.206;15.978;2022-09-09T06:12:38;98719.34;;;15.35;100.00
68169;BME280;54981;50.206;15.978;2022-09-09T06:15:04;98715.56;;;15.60;100.00
68169;BME280;54981;50.206;15.978;2022-09-09T06:17:29;98730.34;;;15.66;100.00
68169;BME280;54981;50.206;15.978;2022-09-09T06:19:55;98719.13;;;15.72;100.00
68169;BME280;54981;50.206;15.978;2022-09-09T06:22:20;98718.13;;;15.62;100.00
68169;BME280;54981;50.206;15.978;2022-09-09T06:24:46;98717.53;;;15.69;100.00
68169;BME280;54981;50.206;15.978;2022-09-09T06:27:11;98718.41;;;15.70;100.00
68169;BME280;54981;50.206;15.978;2022-09-09T06:29:39;98725.25;;;15.74;100.00
68169;BME280;54981;50.206;15.978;2022-09-09T06:32:05;98719.00;;;15.85;100.00
68169;BME280;54981;50.206;15.978;2022-09-09T06:34:30;98715.84;;;15.80;100.00
68169;BME280;54981;50.206;15.978;2022-09-09T06:36:56;98715.50;;;15.73;100.00
68169;BME280;54981;50.206;15.978;2022-09-09T06:39:23;98715.94;;;15.67;100.00
68169;BME280;54981;50.206;15.978;2022-09-09T06:41:48;98714.94;;;15.68;100.00
68169;BME280;54981;50.206;15.978;2022-09-09T06:44:14;98722.78;;;15.82;100.00
68169;BME280;54981;50.206;15.978;2022-09-09T06:46:40;98719.63;;;15.77;100.00
68169;BME280;54981;50.206;15.978;2022-09-09T06:49:09;98725.72;;;15.90;100.00
68169;BME280;54981;50.206;15.978;2022-09-09T06:51:37;98725.19;;;16.19;100.00
68169;BME280;54981;50.206;15.978;2022-09-09T06:54:07;98722.19;;;16.45;100.00
68169;BME280;54981;50.206;15.978;2022-09-09T06:59:02;98718.34;;;16.58;100.00
68169;BME280;54981;50.206;15.978;2022-09-09T07:01:31;98725.03;;;16.64;100.00
68169;BME280;54981;50.206;15.978;2022-09-09T07:03:58;98729.00;;;16.60;100.00
68169;BME280;54981;50.206;15.978;2022-09-09T07:06:28;98725.97;;;16.86;100.00
68169;BME280;54981;50.206;15.978;2022-09-09T07:08:56;98729.13;;;16.91;100.00
68169;BME280;54981;50.206;15.978;2022-09-09T07:11:23;98715.69;;;17.12;100.00
68169;BME280;54981;50.206;15.978;2022-09-09T07:13:48;98715.03;;;17.19;100.00
68169;BME280;54981;50.206;15.978;2022-09-09T07:16:16;98714.13;;;17.30;100.00
68169;BME280;54981;50.206;15.978;2022-09-09T07:18:43;98714.16;;;17.40;100.00
68169;BME280;54981;50.206;15.978;2022-09-09T07:21:10;98715.06;;;17.50;98.96
68169;BME280;54981;50.206;15.978;2022-09-09T07:23:37;98708.94;;;17.48;99.42
68169;BME280;54981;50.206;15.978;2022-09-09T07:26:08;98705.28;;;17.49;98.80
68169;BME280;54981;50.206;15.978;2022-09-09T07:28:33;98712.00;;;17.64;98.76
68169;BME280;54981;50.206;15.978;2022-09-09T07:31:00;98711.03;;;17.96;98.54
68169;BME280;54981;50.206;15.978;2022-09-09T07:33:27;98714.25;;;18.21;97.73
68169;BME280;54981;50.206;15.978;2022-09-09T07:36:12;98715.13;;;18.60;97.05
68169;BME280;54981;50.206;15.978;2022-09-09T07:38:43;98712.03;;;18.74;94.74
68169;BME280;54981;50.206;15.978;2022-09-09T07:41:13;98708.31;;;18.66;93.71
68169;BME280;54981;50.206;15.978;2022-09-09T07:43:40;98716.84;;;18.71;95.39
68169;BME280;54981;50.206;15.978;2022-09-09T07:46:06;98714.84;;;18.53;93.41
68169;BME280;54981;50.206;15.978;2022-09-09T07:48:33;98717.97;;;18.59;95.12
68169;BME280;54981;50.206;15.978;2022-09-09T07:51:16;98715.03;;;18.91;92.97
68169;BME280;54981;50.206;15.978;2022-09-09T07:53:42;98719.41;;;19.11;92.45
68169;BME280;54981;50.206;15.978;2022-09-09T07:56:11;98711.41;;;19.39;91.44
68169;BME280;54981;50.206;15.978;2022-09-09T07:58:37;98714.19;;;19.57;89.07
68169;BME280;54981;50.206;15.978;2022-09-09T08:01:15;98716.75;;;19.68;88.03
68169;BME280;54981;50.206;15.978;2022-09-09T08:03:42;98716.41;;;19.81;86.56
68169;BME280;54981;50.206;15.978;2022-09-09T08:06:10;98720.56;;;20.03;86.04
68169;BME280;54981;50.206;15.978;2022-09-09T08:08:36;98711.94;;;20.17;85.52
68169;BME280;54981;50.206;15.978;2022-09-09T08:11:10;98711.34;;;20.24;85.13
68169;BME280;54981;50.206;15.978;2022-09-09T08:13:37;98713.91;;;20.71;82.50
68169;BME280;54981;50.206;15.978;2022-09-09T08:16:12;98708.13;;;20.83;81.80
68169;BME280;54981;50.206;15.978;2022-09-09T08:18:38;98713.50;;;21.01;81.00
68169;BME280;54981;50.206;15.978;2022-09-09T08:21:10;98712.16;;;21.23;80.43
68169;BME280;54981;50.206;15.978;2022-09-09T08:23:40;98723.97;;;21.40;79.06
68169;BME280;54981;50.206;15.978;2022-09-09T08:26:23;98718.47;;;21.32;78.88
68169;BME280;54981;50.206;15.978;2022-09-09T08:28:50;98710.59;;;21.21;78.46
68169;BME280;54981;50.206;15.978;2022-09-09T08:31:24;98711.78;;;21.18;81.00
68169;BME280;54981;50.206;15.978;2022-09-09T08:33:50;98715.22;;;21.46;77.67
68169;BME280;54981;50.206;15.978;2022-09-09T08:36:24;98709.84;;;21.55;76.38
68169;BME280;54981;50.206;15.978;2022-09-09T08:38:52;98705.44;;;21.54;76.71
68169;BME280;54981;50.206;15.978;2022-09-09T08:54:58;98700.13;;;22.55;73.65
68169;BME280;54981;50.206;15.978;2022-09-09T08:57:27;98701.78;;;22.40;72.11
68169;BME280;54981;50.206;15.978;2022-09-09T08:59:54;98707.72;;;22.35;74.77
68169;BME280;54981;50.206;15.978;2022-09-09T09:02:26;98711.66;;;22.65;74.74
68169;BME280;54981;50.206;15.978;2022-09-09T09:05:15;98713.06;;;22.94;72.09
68169;BME280;54981;50.206;15.978;2022-09-09T09:10:50;98716.44;;;22.71;73.81
68169;BME280;54981;50.206;15.978;2022-09-09T09:15:56;98722.50;;;22.65;74.58
68169;BME280;54981;50.206;15.978;2022-09-09T09:18:24;98719.91;;;22.39;78.38
68169;BME280;54981;50.206;15.978;2022-09-09T09:21:15;98716.75;;;22.52;77.55
68169;BME280;54981;50.206;15.978;2022-09-09T09:23:54;98715.75;;;22.77;71.18
68169;BME280;54981;50.206;15.978;2022-09-09T09:26:24;98700.84;;;23.06;71.46
68169;BME280;54981;50.206;15.978;2022-09-09T09:28:54;98701.22;;;23.03;71.88
68169;BME280;54981;50.206;15.978;2022-09-09T09:31:21;98701.16;;;23.44;70.27
68169;BME280;54981;50.206;15.978;2022-09-09T09:33:52;98704.69;;;23.69;69.20
68169;BME280;54981;50.206;15.978;2022-09-09T09:36:23;98696.63;;;23.28;70.17
68169;BME280;54981;50.206;15.978;2022-09-09T09:38:57;98700.47;;;22.09;75.30
68169;BME280;54981;50.206;15.978;2022-09-09T09:41:35;98708.31;;;21.52;78.76
68169;BME280;54981;50.206;15.978;2022-09-09T09:44:02;98692.41;;;21.31;80.44
68169;BME280;54981;50.206;15.978;2022-09-09T09:46:28;98700.03;;;21.10;80.32
68169;BME280;54981;50.206;15.978;2022-09-09T09:49:01;98701.03;;;21.26;81.00
68169;BME280;54981;50.206;15.978;2022-09-09T09:51:29;98705.72;;;21.42;80.09
68169;BME280;54981;50.206;15.978;2022-09-09T09:56:41;98694.38;;;21.73;73.73
68169;BME280;54981;50.206;15.978;2022-09-09T09:59:42;98686.88;;;22.52;72.77
68169;BME280;54981;50.206;15.978;2022-09-09T10:02:22;98682.00;;;22.88;69.97
68169;BME280;54981;50.206;15.978;2022-09-09T10:05:02;98686.28;;;23.07;68.26
68169;BME280;54981;50.206;15.978;2022-09-09T10:07:28;98686.41;;;22.89;68.53
68169;BME280;54981;50.206;15.978;2022-09-09T10:09:56;98686.78;;;23.19;67.72
68169;BME280;54981;50.206;15.978;2022-09-09T10:15:23;98692.22;;;23.19;65.48
68169;BME280;54981;50.206;15.978;2022-09-09T10:36:49;98672.06;;;21.79;75.44
68169;BME280;54981;50.206;15.978;2022-09-09T10:39:29;98675.75;;;21.78;74.66
68169;BME280;54981;50.206;15.978;2022-09-09T10:42:06;98673.69;;;22.06;73.06
68169;BME280;54981;50.206;15.978;2022-09-09T10:44:45;98674.47;;;21.90;76.52
68169;BME280;54981;50.206;15.978;2022-09-09T10:55:31;98662.97;;;23.37;66.28
68169;BME280;54981;50.206;15.978;2022-09-09T10:57:59;98669.72;;;23.74;62.34
68169;BME280;54981;50.206;15.978;2022-09-09T11:00:47;98679.72;;;24.13;61.81
68169;BME280;54981;50.206;15.978;2022-09-09T11:03:24;98672.25;;;23.68;61.12
68169;BME280;54981;50.206;15.978;2022-09-09T11:05:57;98680.47;;;23.99;63.50
68169;BME280;54981;50.206;15.978;2022-09-09T11:08:26;98676.31;;;24.51;60.15
68169;BME280;54981;50.206;15.978;2022-09-09T11:21:53;98662.44;;;24.29;59.75
68169;BME280;54981;50.206;15.978;2022-09-09T11:24:45;98664.97;;;24.08;61.18
68169;BME280;54981;50.206;15.978;2022-09-09T11:32:18;98660.72;;;24.05;63.04
68169;BME280;54981;50.206;15.978;2022-09-09T11:35:00;98668.34;;;24.10;60.99
68169;BME280;54981;50.206;15.978;2022-09-09T11:40:26;98657.78;;;24.15;61.00
68169;BME280;54981;50.206;15.978;2022-09-09T11:43:29;98649.66;;;24.07;62.75
68169;BME280;54981;50.206;15.978;2022-09-09T11:45:58;98654.78;;;24.01;58.92
68169;BME280;54981;50.206;15.978;2022-09-09T11:48:40;98652.97;;;23.94;60.15
68169;BME280;54981;50.206;15.978;2022-09-09T11:54:28;98643.84;;;23.78;60.23
68169;BME280;54981;50.206;15.978;2022-09-09T11:56:47;98643.84;;;23.78;61.89
68169;BME280;54981;50.206;15.978;2022-09-09T12:06:56;98648.63;;;23.68;56.73
68169;BME280;54981;50.206;15.978;2022-09-09T12:09:33;98649.28;;;23.70;59.44
68169;BME280;54981;50.206;15.978;2022-09-09T12:14:42;98651.00;;;23.63;57.69
68169;BME280;54981;50.206;15.978;2022-09-09T12:17:22;98650.97;;;23.71;58.27
68169;BME280;54981;50.206;15.978;2022-09-09T12:19:48;98647.47;;;23.54;59.37
68169;BME280;54981;50.206;15.978;2022-09-09T12:22:52;98652.53;;;23.66;58.59
68169;BME280;54981;50.206;15.978;2022-09-09T12:25:47;98647.97;;;23.74;59.65
68169;BME280;54981;50.206;15.978;2022-09-09T12:28:25;98643.00;;;23.78;56.62
68169;BME280;54981;50.206;15.978;2022-09-09T12:31:06;98647.25;;;23.64;58.64
68169;BME280;54981;50.206;15.978;2022-09-09T12:33:36;98643.00;;;23.78;59.12
68169;BME280;54981;50.206;15.978;2022-09-09T12:36:03;98639.75;;;23.83;56.50
68169;BME280;54981;50.206;15.978;2022-09-09T12:38:40;98636.53;;;23.71;57.45
68169;BME280;54981;50.206;15.978;2022-09-09T12:41:19;98631.09;;;23.71;57.36
68169;BME280;54981;50.206;15.978;2022-09-09T12:43:45;98633.50;;;23.66;57.20
68169;BME280;54981;50.206;15.978;2022-09-09T12:46:21;98628.44;;;23.63;57.24
68169;BME280;54981;50.206;15.978;2022-09-09T12:48:47;98608.72;;;23.60;56.77
68169;BME280;54981;50.206;15.978;2022-09-09T12:51:27;98611.28;;;23.62;58.60
68169;BME280;54981;50.206;15.978;2022-09-09T12:53:54;98612.63;;;23.58;57.96
68169;BME280;54981;50.206;15.978;2022-09-09T12:56:29;98608.75;;;23.52;59.68
68169;BME280;54981;50.206;15.978;2022-09-09T12:58:57;98605.63;;;23.72;57.63
68169;BME280;54981;50.206;15.978;2022-09-09T13:01:28;98605.97;;;23.69;58.48
68169;BME280;54981;50.206;15.978;2022-09-09T13:03:54;98608.75;;;23.52;59.79
68169;BME280;54981;50.206;15.978;2022-09-09T13:06:31;98607.41;;;23.48;57.70
68169;BME280;54981;50.206;15.978;2022-09-09T13:08:59;98599.53;;;23.61;59.67
68169;BME280;54981;50.206;15.978;2022-09-09T13:11:26;98604.97;;;23.61;56.73
68169;BME280;54981;50.206;15.978;2022-09-09T13:13:56;98607.69;;;23.61;57.84
68169;BME280;54981;50.206;15.978;2022-09-09T13:16:26;98603.41;;;23.84;56.86
68169;BME280;54981;50.206;15.978;2022-09-09T13:18:58;98612.28;;;23.69;57.36
68169;BME280;54981;50.206;15.978;2022-09-09T13:21:35;98608.56;;;23.54;57.99
68169;BME280;54981;50.206;15.978;2022-09-09T13:24:01;98606.69;;;23.54;58.75
68169;BME280;54981;50.206;15.978;2022-09-09T13:26:29;98603.13;;;23.62;57.29
68169;BME280;54981;50.206;15.978;2022-09-09T13:29:17;98599.06;;;23.58;58.41
68169;BME280;54981;50.206;15.978;2022-09-09T13:31:45;98604.69;;;23.48;59.22
68169;BME280;54981;50.206;15.978;2022-09-09T13:34:31;98603.13;;;23.54;60.51
68169;BME280;54981;50.206;15.978;2022-09-09T13:37:00;98601.25;;;23.54;58.09
68169;BME280;54981;50.206;15.978;2022-09-09T13:39:28;98595.81;;;23.54;59.83
68169;BME280;54981;50.206;15.978;2022-09-09T13:41:53;98596.44;;;23.33;60.34
68169;BME280;54981;50.206;15.978;2022-09-09T13:44:28;98591.31;;;23.30;61.32
68169;BME280;54981;50.206;15.978;2022-09-09T13:49:39;98598.53;;;23.54;61.45
68169;BME280;54981;50.206;15.978;2022-09-09T13:52:10;98590.47;;;23.30;63.54
68169;BME280;54981;50.206;15.978;2022-09-09T13:54:36;98586.47;;;23.09;62.91
68169;BME280;54981;50.206;15.978;2022-09-09T13:57:02;98579.69;;;22.97;64.64
68169;BME280;54981;50.206;15.978;2022-09-09T13:59:29;98581.38;;;22.82;64.76
68169;BME280;54981;50.206;15.978;2022-09-09T14:01:54;98581.91;;;22.69;64.26
68169;BME280;54981;50.206;15.978;2022-09-09T14:04:20;98581.06;;;22.68;64.57
68169;BME280;54981;50.206;15.978;2022-09-09T14:06:49;98577.84;;;22.73;64.49
68169;BME280;54981;50.206;15.978;2022-09-09T14:09:17;98567.63;;;22.91;61.44
68169;BME280;54981;50.206;15.978;2022-09-09T14:11:44;98569.84;;;23.04;62.55
68169;BME280;54981;50.206;15.978;2022-09-09T14:14:10;98571.66;;;23.20;62.31
68169;BME280;54981;50.206;15.978;2022-09-09T14:16:35;98576.63;;;23.08;58.72
68169;BME280;54981;50.206;15.978;2022-09-09T14:19:02;98563.72;;;23.10;59.67
68169;BME280;54981;50.206;15.978;2022-09-09T14:21:28;98574.22;;;23.13;61.12
68169;BME280;54981;50.206;15.978;2022-09-09T14:23:53;98573.53;;;23.20;60.67
68169;BME280;54981;50.206;15.978;2022-09-09T14:26:20;98567.78;;;23.14;59.40
68169;BME280;54981;50.206;15.978;2022-09-09T14:28:47;98577.94;;;23.29;61.33
68169;BME280;54981;50.206;15.978;2022-09-09T14:31:13;98569.97;;;23.19;62.17
68169;BME280;54981;50.206;15.978;2022-09-09T14:33:39;98574.22;;;23.13;62.75
68169;BME280;54981;50.206;15.978;2022-09-09T14:36:04;98574.22;;;23.13;62.84
68169;BME280;54981;50.206;15.978;2022-09-09T14:38:34;98570.81;;;23.11;63.08
68169;BME280;54981;50.206;15.978;2022-09-09T14:41:03;98574.56;;;23.10;62.17
68169;BME280;54981;50.206;15.978;2022-09-09T14:43:29;98575.25;;;23.12;62.52
68169;BME280;54981;50.206;15.978;2022-09-09T14:46:19;98580.19;;;23.01;60.29
68169;BME280;54981;50.206;15.978;2022-09-09T14:48:43;98579.69;;;23.05;62.64
68169;BME280;54981;50.206;15.978;2022-09-09T14:51:20;98574.94;;;23.07;63.97
68169;BME280;54981;50.206;15.978;2022-09-09T14:53:47;98570.81;;;23.11;62.30
68169;BME280;54981;50.206;15.978;2022-09-09T14:56:19;98565.06;;;23.14;64.52
68169;BME280;54981;50.206;15.978;2022-09-09T14:58:45;98563.03;;;23.16;63.33